Bl Darnell — WDE5130 — position and weather

sailwx.info

Track history (hours):
 
Tides and Currents Weather Stations Pressure Air Temp Water Temp Dewpoint Dewpoint Depression Visibility Wind Speed Wind Dir Waves Ship Positions

Bl Darnell

Owner: The Tug BL Darnell, L.L.C., Channelview, TX. More information available from US FCC via Universal Licensing System and Coast Guard Vessel Documentation Center.

Last reported at 2017-Sep-22 02:00 UTC. Time now 2017-Sep-23 02:23 UTC.
Position N 29°46' W 095°06'.

Length 22 m.

Type: Other ship. MMSI: 367362460.

Date/timePositionNaut miles runAvg speedWind from/ knotsBaromVisibWave heightAir tempDewpointWater temp
2017-Sep-22 02:00N 29°46' W 095°06'0 0.0
2017-Sep-22 01:30N 29°46' W 095°06'0 0.0
2017-Sep-22 01:00N 29°46' W 095°06'0 0.0
2017-Sep-22 00:28N 29°46' W 095°06'0 0.0
2017-Sep-22 00:00N 29°46' W 095°06'0 0.0
2017-Sep-21 23:30N 29°46' W 095°06'0 0.0
2017-Sep-21 23:00N 29°46' W 095°06'0 0.0
2017-Sep-21 22:30N 29°46' W 095°06'1 2.6
2017-Sep-21 21:57N 29°47' W 095°05'0 0.4
2017-Sep-21 21:27N 29°47' W 095°04'2 3.6
2017-Sep-21 20:50N 29°46' W 095°07'0 0.0
2017-Sep-21 20:22N 29°46' W 095°07'0 0.0
2017-Sep-21 19:49N 29°46' W 095°07'0 0.0
2017-Sep-21 19:30N 29°46' W 095°07'0 0.0
2017-Sep-21 18:59N 29°46' W 095°07'0 0.0
2017-Sep-21 18:30N 29°46' W 095°07'0 0.0
2017-Sep-21 18:00N 29°46' W 095°07'0 0.0
2017-Sep-21 17:29N 29°46' W 095°07'0 0.0
2017-Sep-21 16:58N 29°46' W 095°07'0 0.1
2017-Sep-21 16:30N 29°46' W 095°07'2 3.9
2017-Sep-21 15:58N 29°47' W 095°05'1 1.7
2017-Sep-21 15:22N 29°46' W 095°05'1 1.5
2017-Sep-21 14:44N 29°46' W 095°06'0 0.0
2017-Sep-21 14:29N 29°46' W 095°06'0 0.0
2017-Sep-21 12:08N 29°46' W 095°06'0 0.0
2017-Sep-21 11:47N 29°46' W 095°06'0 0.1
2017-Sep-21 11:30N 29°46' W 095°06'0 0.0
2017-Sep-21 11:00N 29°46' W 095°06'0 0.0
2017-Sep-21 10:30N 29°46' W 095°06'0 0.0
2017-Sep-21 10:00N 29°46' W 095°06'1 1.3
2017-Sep-21 09:29N 29°46' W 095°05'3 1.5
2017-Sep-21 07:42N 29°44' W 095°08'1 3.7
2017-Sep-21 07:30N 29°44' W 095°07'4 5.4
2017-Sep-21 06:48N 29°47' W 095°04'4 0.8
2017-Sep-21 02:28N 29°44' W 095°07'4 3.0
2017-Sep-21 01:03N 29°45' W 095°11'0 3.6
2017-Sep-21 01:00N 29°45' W 095°11'3 6.9
2017-Sep-21 00:30N 29°44' W 095°07'1 0.6
2017-Sep-20 22:32N 29°45' W 095°06'0 0.8
2017-Sep-20 22:27N 29°45' W 095°06'2 2.5
2017-Sep-20 21:49N 29°46' W 095°06'0 0.0
2017-Sep-20 21:30N 29°46' W 095°06'0 0.0
2017-Sep-20 21:00N 29°46' W 095°06'0 0.0
2017-Sep-20 20:30N 29°46' W 095°06'1 2.2
2017-Sep-20 19:50N 29°47' W 095°05'3 1.2
2017-Sep-20 17:19N 29°44' W 095°07'4 6.6
2017-Sep-20 16:47N 29°45' W 095°11'1 2.1
2017-Sep-20 16:30N 29°45' W 095°11'0 0.5
2017-Sep-20 16:00N 29°45' W 095°11'0 0.3
2017-Sep-20 15:15N 29°45' W 095°11'1 4.5
2017-Sep-20 15:00N 29°45' W 095°10'1 0.8
2017-Sep-20 13:38N 29°45' W 095°11'0 0.0
2017-Sep-20 13:30N 29°45' W 095°11'0 0.0
2017-Sep-20 12:59N 29°45' W 095°11'0 0.0
2017-Sep-20 12:29N 29°45' W 095°11'0 0.0
2017-Sep-20 11:30N 29°45' W 095°11'0 0.0
2017-Sep-20 11:00N 29°45' W 095°11'0 0.0
2017-Sep-20 10:27N 29°45' W 095°11'0 0.0
2017-Sep-20 10:00N 29°45' W 095°11'0 0.0
2017-Sep-20 09:19N 29°45' W 095°11'0 0.0
2017-Sep-20 08:59N 29°45' W 095°11'0 0.0
2017-Sep-20 08:30N 29°45' W 095°11'0 0.0
2017-Sep-20 07:59N 29°45' W 095°11'0 0.0
2017-Sep-20 07:27N 29°45' W 095°11'0 0.0
2017-Sep-20 07:00N 29°45' W 095°11'0 0.0
2017-Sep-20 06:27N 29°45' W 095°11'0 0.0
2017-Sep-20 06:00N 29°45' W 095°11'2 3.1
2017-Sep-20 05:17N 29°44' W 095°13'2 5.9
2017-Sep-20 04:52N 29°44' W 095°16'2 3.6
2017-Sep-20 04:26N 29°45' W 095°17'0 0.0
2017-Sep-19 17:32N 29°45' W 095°17'0 0.1
2017-Sep-19 17:10N 29°45' W 095°17'1 4.4
2017-Sep-19 17:00N 29°44' W 095°17'2 4.2
2017-Sep-19 16:30N 29°43' W 095°14'3 5.9
2017-Sep-19 15:58N 29°45' W 095°11'0 0.1
2017-Sep-19 15:27N 29°45' W 095°11'0 0.0
2017-Sep-19 10:44N 29°45' W 095°11'0 0.0
2017-Sep-19 10:24N 29°45' W 095°11'0 0.0
2017-Sep-19 09:22N 29°45' W 095°11'0 0.0
2017-Sep-19 08:58N 29°45' W 095°11'0 0.0
2017-Sep-19 08:25N 29°45' W 095°11'0 0.0
2017-Sep-19 07:42N 29°45' W 095°11'0 0.0
2017-Sep-19 07:30N 29°45' W 095°11'0 0.0
2017-Sep-19 06:58N 29°45' W 095°11'0 0.0
2017-Sep-19 06:30N 29°45' W 095°11'0 0.0
2017-Sep-19 04:05N 29°45' W 095°11'0 0.0
2017-Sep-19 03:46N 29°45' W 095°11'0 0.0
2017-Sep-19 03:17N 29°45' W 095°11'0 0.0
2017-Sep-19 02:58N 29°45' W 095°11'0 0.0
2017-Sep-19 02:28N 29°45' W 095°11'0 0.0
2017-Sep-19 01:57N 29°45' W 095°11'0 0.2
2017-Sep-19 01:25N 29°45' W 095°11'0 0.2
2017-Sep-19 01:00N 29°45' W 095°11'0 0.1
2017-Sep-19 00:18N 29°45' W 095°11'0 0.2
2017-Sep-19 00:00N 29°45' W 095°11'0 0.1
2017-Sep-18 23:30N 29°45' W 095°11'1 1.0
2017-Sep-18 23:00N 29°45' W 095°11'1 2.3
2017-Sep-18 22:30N 29°44' W 095°09'2 3.1
2017-Sep-18 21:58N 29°44' W 095°08'2 0.5
2017-Sep-18 18:06N 29°46' W 095°07'0 0.0
2017-Sep-18 17:47N 29°46' W 095°07'0 0.1
2017-Sep-18 16:54N 29°46' W 095°07'1 2.2
2017-Sep-18 16:30N 29°45' W 095°06'1 0.4
2017-Sep-18 14:00N 29°46' W 095°06'0 0.0
2017-Sep-18 13:01N 29°46' W 095°06'0 0.0
2017-Sep-18 12:59N 29°46' W 095°06'0 0.0
2017-Sep-18 12:27N 29°46' W 095°06'0 0.0
2017-Sep-18 11:59N 29°46' W 095°06'1 0.6
2017-Sep-18 10:20N 29°46' W 095°05'5 5.9
2017-Sep-18 09:32N 29°45' W 095°11'3 6.6
2017-Sep-18 09:07N 29°44' W 095°13'0 1.7
2017-Sep-18 09:00N 29°44' W 095°14'0 0.0
2017-Sep-17 13:04N 29°44' W 095°14'0 0.0
2017-Sep-17 12:46N 29°44' W 095°14'2 4.5
2017-Sep-17 12:15N 29°45' W 095°11'1 6.2
2017-Sep-17 12:00N 29°44' W 095°10'4 5.7
2017-Sep-17 11:21N 29°46' W 095°05'2 1.6
2017-Sep-17 10:00N 29°47' W 095°04'0 0.3
2017-Sep-17 09:29N 29°47' W 095°04'4 0.4
2017-Sep-16 21:02N 29°44' W 095°08'0 0.7
2017-Sep-16 20:59N 29°44' W 095°08'0 0.0
2017-Sep-16 18:17N 29°44' W 095°08'1 4.1
2017-Sep-16 17:58N 29°45' W 095°06'2 4.0
2017-Sep-16 17:28N 29°46' W 095°05'1 2.1
2017-Sep-16 16:47N 29°47' W 095°04'2 3.7
2017-Sep-16 16:15N 29°46' W 095°05'1 0.3
2017-Sep-16 13:29N 29°46' W 095°06'0 0.0
2017-Sep-16 13:00N 29°46' W 095°06'0 0.0
2017-Sep-16 12:30N 29°46' W 095°06'0 0.0
2017-Sep-16 12:00N 29°46' W 095°06'0 0.0
2017-Sep-16 11:30N 29°46' W 095°06'0 0.0
2017-Sep-16 11:00N 29°46' W 095°06'0 0.0
2017-Sep-16 10:30N 29°46' W 095°06'0 0.0
2017-Sep-16 10:00N 29°46' W 095°06'0 0.0
2017-Sep-16 09:30N 29°46' W 095°06'0 0.0
2017-Sep-16 09:00N 29°46' W 095°06'0 0.0
2017-Sep-16 08:30N 29°46' W 095°06'0 0.0
2017-Sep-16 08:00N 29°46' W 095°06'0 0.0
2017-Sep-16 07:30N 29°46' W 095°06'0 0.0
2017-Sep-16 07:00N 29°46' W 095°06'0 0.0
2017-Sep-16 06:30N 29°46' W 095°06'0 0.0
2017-Sep-16 05:59N 29°46' W 095°06'1 1.5
2017-Sep-16 05:30N 29°46' W 095°05'0 0.0
2017-Sep-15 19:45N 29°46' W 095°05'1 0.6
2017-Sep-15 18:57N 29°46' W 095°05'3 6.7
2017-Sep-15 18:30N 29°44' W 095°02'1 1.5
2017-Sep-15 18:00N 29°44' W 095°01'3 4.9
2017-Sep-15 17:23N 29°46' W 095°04'2 5.6
2017-Sep-15 17:00N 29°44' W 095°03'1 0.2
2017-Sep-15 10:41N 29°44' W 095°01'0 0.0
2017-Sep-15 09:51N 29°44' W 095°01'0 0.0
2017-Sep-15 09:29N 29°44' W 095°01'0 0.0
2017-Sep-14 15:37N 29°44' W 095°01'0 0.2
2017-Sep-14 15:21N 29°44' W 095°01'0 0.0
2017-Sep-13 23:34N 29°44' W 095°01'0 1.7
2017-Sep-13 23:25N 29°44' W 095°01'4 6.0
2017-Sep-13 22:47N 29°46' W 095°05'1 0.3
2017-Sep-13 19:38N 29°45' W 095°06'1 3.0
2017-Sep-13 19:18N 29°46' W 095°06'1 3.4
2017-Sep-13 18:53N 29°47' W 095°05'2 0.6
2017-Sep-13 14:43N 29°45' W 095°06'1 2.7
2017-Sep-13 14:18N 29°46' W 095°05'1 2.8
2017-Sep-13 14:00N 29°46' W 095°06'2 0.3
2017-Sep-13 07:27N 29°45' W 095°06'0 0.0
2017-Sep-13 07:00N 29°45' W 095°06'1 0.2
2017-Sep-13 04:05N 29°45' W 095°06'1 6.9
2017-Sep-13 03:59N 29°46' W 095°05'2 3.6
2017-Sep-13 03:28N 29°47' W 095°04'0 0.2
2017-Sep-13 02:59N 29°47' W 095°04'2 0.6
2017-Sep-12 23:48N 29°46' W 095°05'5 5.1
2017-Sep-12 22:55N 29°45' W 095°10'0 0.5
2017-Sep-12 22:25N 29°45' W 095°10'0 0.4
2017-Sep-12 21:59N 29°45' W 095°10'0 0.6
2017-Sep-12 21:30N 29°45' W 095°10'2 4.5
2017-Sep-12 20:59N 29°44' W 095°08'0 0.0
2017-Sep-12 19:15N 29°44' W 095°08'0 1.4
2017-Sep-12 19:00N 29°44' W 095°07'2 4.2
2017-Sep-12 18:30N 29°46' W 095°06'1 0.7
2017-Sep-12 17:05N 29°45' W 095°06'1 6.3
2017-Sep-12 16:59N 29°44' W 095°07'7 2.5
2017-Sep-12 14:18N 29°43' W 095°14'3 6.6
2017-Sep-12 13:49N 29°45' W 095°11'2 6.7
2017-Sep-12 13:30N 29°44' W 095°09'3 6.5
2017-Sep-12 13:00N 29°46' W 095°05'1 1.5
2017-Sep-12 12:20N 29°46' W 095°05'2 5.1
2017-Sep-12 12:00N 29°45' W 095°04'3 5.1
2017-Sep-12 11:30N 29°43' W 095°01'1 1.0
2017-Sep-12 10:54N 29°44' W 095°01'0 0.0
2017-Sep-12 10:29N 29°44' W 095°01'0 0.0
2017-Sep-12 09:59N 29°44' W 095°01'0 0.0
2017-Sep-12 09:30N 29°44' W 095°01'0 0.0
2017-Sep-12 09:00N 29°44' W 095°01'0 0.0
2017-Sep-12 08:27N 29°44' W 095°01'0 0.0
2017-Sep-12 08:00N 29°44' W 095°01'0 0.0
2017-Sep-12 07:29N 29°44' W 095°01'0 0.0
2017-Sep-12 06:58N 29°44' W 095°01'0 0.0
2017-Sep-12 06:29N 29°44' W 095°01'0 0.0
2017-Sep-12 04:45N 29°44' W 095°01'0 0.0
2017-Sep-12 04:25N 29°44' W 095°01'0 0.0
2017-Sep-12 04:00N 29°44' W 095°01'0 0.0
2017-Sep-12 03:30N 29°44' W 095°01'0 0.0
2017-Sep-12 02:41N 29°44' W 095°01'0 0.0
2017-Sep-12 02:27N 29°44' W 095°01'  
Track history (hours):
 
Tides and Currents Weather Stations Pressure Air Temp Water Temp Dewpoint Dewpoint Depression Visibility Wind Speed Wind Dir Waves Ship Positions

Bl Darnell

Owner: The Tug BL Darnell, L.L.C., Channelview, TX. More information available from US FCC via Universal Licensing System and Coast Guard Vessel Documentation Center.

Last reported at 2017-Sep-22 02:00 UTC. Time now 2017-Sep-23 02:23 UTC.
Position N 29°46' W 095°06'.

Length 22 m.

Type: Other ship. MMSI: 367362460.

Date/timePositionNaut miles runAvg speedWind from/ knotsBaromVisibWave heightAir tempDewpointWater temp
2017-Sep-22 02:00N 29°46' W 095°06'0 0.0
2017-Sep-22 01:30N 29°46' W 095°06'0 0.0
2017-Sep-22 01:00N 29°46' W 095°06'0 0.0
2017-Sep-22 00:28N 29°46' W 095°06'0 0.0
2017-Sep-22 00:00N 29°46' W 095°06'0 0.0
2017-Sep-21 23:30N 29°46' W 095°06'0 0.0
2017-Sep-21 23:00N 29°46' W 095°06'0 0.0
2017-Sep-21 22:30N 29°46' W 095°06'1 2.6
2017-Sep-21 21:57N 29°47' W 095°05'0 0.4
2017-Sep-21 21:27N 29°47' W 095°04'2 3.6
2017-Sep-21 20:50N 29°46' W 095°07'0 0.0
2017-Sep-21 20:22N 29°46' W 095°07'0 0.0
2017-Sep-21 19:49N 29°46' W 095°07'0 0.0
2017-Sep-21 19:30N 29°46' W 095°07'0 0.0
2017-Sep-21 18:59N 29°46' W 095°07'0 0.0
2017-Sep-21 18:30N 29°46' W 095°07'0 0.0
2017-Sep-21 18:00N 29°46' W 095°07'0 0.0
2017-Sep-21 17:29N 29°46' W 095°07'0 0.0
2017-Sep-21 16:58N 29°46' W 095°07'0 0.1
2017-Sep-21 16:30N 29°46' W 095°07'2 3.9
2017-Sep-21 15:58N 29°47' W 095°05'1 1.7
2017-Sep-21 15:22N 29°46' W 095°05'1 1.5
2017-Sep-21 14:44N 29°46' W 095°06'0 0.0
2017-Sep-21 14:29N 29°46' W 095°06'0 0.0
2017-Sep-21 12:08N 29°46' W 095°06'0 0.0
2017-Sep-21 11:47N 29°46' W 095°06'0 0.1
2017-Sep-21 11:30N 29°46' W 095°06'0 0.0
2017-Sep-21 11:00N 29°46' W 095°06'0 0.0
2017-Sep-21 10:30N 29°46' W 095°06'0 0.0
2017-Sep-21 10:00N 29°46' W 095°06'1 1.3
2017-Sep-21 09:29N 29°46' W 095°05'3 1.5
2017-Sep-21 07:42N 29°44' W 095°08'1 3.7
2017-Sep-21 07:30N 29°44' W 095°07'4 5.4
2017-Sep-21 06:48N 29°47' W 095°04'4 0.8
2017-Sep-21 02:28N 29°44' W 095°07'4 3.0
2017-Sep-21 01:03N 29°45' W 095°11'0 3.6
2017-Sep-21 01:00N 29°45' W 095°11'3 6.9
2017-Sep-21 00:30N 29°44' W 095°07'1 0.6
2017-Sep-20 22:32N 29°45' W 095°06'0 0.8
2017-Sep-20 22:27N 29°45' W 095°06'2 2.5
2017-Sep-20 21:49N 29°46' W 095°06'0 0.0
2017-Sep-20 21:30N 29°46' W 095°06'0 0.0
2017-Sep-20 21:00N 29°46' W 095°06'0 0.0
2017-Sep-20 20:30N 29°46' W 095°06'1 2.2
2017-Sep-20 19:50N 29°47' W 095°05'3 1.2
2017-Sep-20 17:19N 29°44' W 095°07'4 6.6
2017-Sep-20 16:47N 29°45' W 095°11'1 2.1
2017-Sep-20 16:30N 29°45' W 095°11'0 0.5
2017-Sep-20 16:00N 29°45' W 095°11'0 0.3
2017-Sep-20 15:15N 29°45' W 095°11'1 4.5
2017-Sep-20 15:00N 29°45' W 095°10'1 0.8
2017-Sep-20 13:38N 29°45' W 095°11'0 0.0
2017-Sep-20 13:30N 29°45' W 095°11'0 0.0
2017-Sep-20 12:59N 29°45' W 095°11'0 0.0
2017-Sep-20 12:29N 29°45' W 095°11'0 0.0
2017-Sep-20 11:30N 29°45' W 095°11'0 0.0
2017-Sep-20 11:00N 29°45' W 095°11'0 0.0
2017-Sep-20 10:27N 29°45' W 095°11'0 0.0
2017-Sep-20 10:00N 29°45' W 095°11'0 0.0
2017-Sep-20 09:19N 29°45' W 095°11'0 0.0
2017-Sep-20 08:59N 29°45' W 095°11'0 0.0
2017-Sep-20 08:30N 29°45' W 095°11'0 0.0
2017-Sep-20 07:59N 29°45' W 095°11'0 0.0
2017-Sep-20 07:27N 29°45' W 095°11'0 0.0
2017-Sep-20 07:00N 29°45' W 095°11'0 0.0
2017-Sep-20 06:27N 29°45' W 095°11'0 0.0
2017-Sep-20 06:00N 29°45' W 095°11'2 3.1
2017-Sep-20 05:17N 29°44' W 095°13'2 5.9
2017-Sep-20 04:52N 29°44' W 095°16'2 3.6
2017-Sep-20 04:26N 29°45' W 095°17'0 0.0
2017-Sep-19 17:32N 29°45' W 095°17'0 0.1
2017-Sep-19 17:10N 29°45' W 095°17'1 4.4
2017-Sep-19 17:00N 29°44' W 095°17'2 4.2
2017-Sep-19 16:30N 29°43' W 095°14'3 5.9
2017-Sep-19 15:58N 29°45' W 095°11'0 0.1
2017-Sep-19 15:27N 29°45' W 095°11'0 0.0
2017-Sep-19 10:44N 29°45' W 095°11'0 0.0
2017-Sep-19 10:24N 29°45' W 095°11'0 0.0
2017-Sep-19 09:22N 29°45' W 095°11'0 0.0
2017-Sep-19 08:58N 29°45' W 095°11'0 0.0
2017-Sep-19 08:25N 29°45' W 095°11'0 0.0
2017-Sep-19 07:42N 29°45' W 095°11'0 0.0
2017-Sep-19 07:30N 29°45' W 095°11'0 0.0
2017-Sep-19 06:58N 29°45' W 095°11'0 0.0
2017-Sep-19 06:30N 29°45' W 095°11'0 0.0
2017-Sep-19 04:05N 29°45' W 095°11'0 0.0
2017-Sep-19 03:46N 29°45' W 095°11'0 0.0
2017-Sep-19 03:17N 29°45' W 095°11'0 0.0
2017-Sep-19 02:58N 29°45' W 095°11'0 0.0
2017-Sep-19 02:28N 29°45' W 095°11'0 0.0
2017-Sep-19 01:57N 29°45' W 095°11'0 0.2
2017-Sep-19 01:25N 29°45' W 095°11'0 0.2
2017-Sep-19 01:00N 29°45' W 095°11'0 0.1
2017-Sep-19 00:18N 29°45' W 095°11'0 0.2
2017-Sep-19 00:00N 29°45' W 095°11'0 0.1
2017-Sep-18 23:30N 29°45' W 095°11'1 1.0
2017-Sep-18 23:00N 29°45' W 095°11'1 2.3
2017-Sep-18 22:30N 29°44' W 095°09'2 3.1
2017-Sep-18 21:58N 29°44' W 095°08'2 0.5
2017-Sep-18 18:06N 29°46' W 095°07'0 0.0
2017-Sep-18 17:47N 29°46' W 095°07'0 0.1
2017-Sep-18 16:54N 29°46' W 095°07'1 2.2
2017-Sep-18 16:30N 29°45' W 095°06'1 0.4
2017-Sep-18 14:00N 29°46' W 095°06'0 0.0
2017-Sep-18 13:01N 29°46' W 095°06'0 0.0
2017-Sep-18 12:59N 29°46' W 095°06'0 0.0
2017-Sep-18 12:27N 29°46' W 095°06'0 0.0
2017-Sep-18 11:59N 29°46' W 095°06'1 0.6
2017-Sep-18 10:20N 29°46' W 095°05'5 5.9
2017-Sep-18 09:32N 29°45' W 095°11'3 6.6
2017-Sep-18 09:07N 29°44' W 095°13'0 1.7
2017-Sep-18 09:00N 29°44' W 095°14'0 0.0
2017-Sep-17 13:04N 29°44' W 095°14'0 0.0
2017-Sep-17 12:46N 29°44' W 095°14'2 4.5
2017-Sep-17 12:15N 29°45' W 095°11'1 6.2
2017-Sep-17 12:00N 29°44' W 095°10'4 5.7
2017-Sep-17 11:21N 29°46' W 095°05'2 1.6
2017-Sep-17 10:00N 29°47' W 095°04'0 0.3
2017-Sep-17 09:29N 29°47' W 095°04'4 0.4
2017-Sep-16 21:02N 29°44' W 095°08'0 0.7
2017-Sep-16 20:59N 29°44' W 095°08'0 0.0
2017-Sep-16 18:17N 29°44' W 095°08'1 4.1
2017-Sep-16 17:58N 29°45' W 095°06'2 4.0
2017-Sep-16 17:28N 29°46' W 095°05'1 2.1
2017-Sep-16 16:47N 29°47' W 095°04'2 3.7
2017-Sep-16 16:15N 29°46' W 095°05'1 0.3
2017-Sep-16 13:29N 29°46' W 095°06'0 0.0
2017-Sep-16 13:00N 29°46' W 095°06'0 0.0
2017-Sep-16 12:30N 29°46' W 095°06'0 0.0
2017-Sep-16 12:00N 29°46' W 095°06'0 0.0
2017-Sep-16 11:30N 29°46' W 095°06'0 0.0
2017-Sep-16 11:00N 29°46' W 095°06'0 0.0
2017-Sep-16 10:30N 29°46' W 095°06'0 0.0
2017-Sep-16 10:00N 29°46' W 095°06'0 0.0
2017-Sep-16 09:30N 29°46' W 095°06'0 0.0
2017-Sep-16 09:00N 29°46' W 095°06'0 0.0
2017-Sep-16 08:30N 29°46' W 095°06'0 0.0
2017-Sep-16 08:00N 29°46' W 095°06'0 0.0
2017-Sep-16 07:30N 29°46' W 095°06'0 0.0
2017-Sep-16 07:00N 29°46' W 095°06'0 0.0
2017-Sep-16 06:30N 29°46' W 095°06'0 0.0
2017-Sep-16 05:59N 29°46' W 095°06'1 1.5
2017-Sep-16 05:30N 29°46' W 095°05'0 0.0
2017-Sep-15 19:45N 29°46' W 095°05'1 0.6
2017-Sep-15 18:57N 29°46' W 095°05'3 6.7
2017-Sep-15 18:30N 29°44' W 095°02'1 1.5
2017-Sep-15 18:00N 29°44' W 095°01'3 4.9
2017-Sep-15 17:23N 29°46' W 095°04'2 5.6
2017-Sep-15 17:00N 29°44' W 095°03'1 0.2
2017-Sep-15 10:41N 29°44' W 095°01'0 0.0
2017-Sep-15 09:51N 29°44' W 095°01'0 0.0
2017-Sep-15 09:29N 29°44' W 095°01'0 0.0
2017-Sep-14 15:37N 29°44' W 095°01'0 0.2
2017-Sep-14 15:21N 29°44' W 095°01'0 0.0
2017-Sep-13 23:34N 29°44' W 095°01'0 1.7
2017-Sep-13 23:25N 29°44' W 095°01'4 6.0
2017-Sep-13 22:47N 29°46' W 095°05'1 0.3
2017-Sep-13 19:38N 29°45' W 095°06'1 3.0
2017-Sep-13 19:18N 29°46' W 095°06'1 3.4
2017-Sep-13 18:53N 29°47' W 095°05'2 0.6
2017-Sep-13 14:43N 29°45' W 095°06'1 2.7
2017-Sep-13 14:18N 29°46' W 095°05'1 2.8
2017-Sep-13 14:00N 29°46' W 095°06'2 0.3
2017-Sep-13 07:27N 29°45' W 095°06'0 0.0
2017-Sep-13 07:00N 29°45' W 095°06'1 0.2
2017-Sep-13 04:05N 29°45' W 095°06'1 6.9
2017-Sep-13 03:59N 29°46' W 095°05'2 3.6
2017-Sep-13 03:28N 29°47' W 095°04'0 0.2
2017-Sep-13 02:59N 29°47' W 095°04'2 0.6
2017-Sep-12 23:48N 29°46' W 095°05'5 5.1
2017-Sep-12 22:55N 29°45' W 095°10'0 0.5
2017-Sep-12 22:25N 29°45' W 095°10'0 0.4
2017-Sep-12 21:59N 29°45' W 095°10'0 0.6
2017-Sep-12 21:30N 29°45' W 095°10'2 4.5
2017-Sep-12 20:59N 29°44' W 095°08'0 0.0
2017-Sep-12 19:15N 29°44' W 095°08'0 1.4
2017-Sep-12 19:00N 29°44' W 095°07'2 4.2
2017-Sep-12 18:30N 29°46' W 095°06'1 0.7
2017-Sep-12 17:05N 29°45' W 095°06'1 6.3
2017-Sep-12 16:59N 29°44' W 095°07'7 2.5
2017-Sep-12 14:18N 29°43' W 095°14'3 6.6
2017-Sep-12 13:49N 29°45' W 095°11'2 6.7
2017-Sep-12 13:30N 29°44' W 095°09'3 6.5
2017-Sep-12 13:00N 29°46' W 095°05'1 1.5
2017-Sep-12 12:20N 29°46' W 095°05'2 5.1
2017-Sep-12 12:00N 29°45' W 095°04'3 5.1
2017-Sep-12 11:30N 29°43' W 095°01'1 1.0
2017-Sep-12 10:54N 29°44' W 095°01'0 0.0
2017-Sep-12 10:29N 29°44' W 095°01'0 0.0
2017-Sep-12 09:59N 29°44' W 095°01'0 0.0
2017-Sep-12 09:30N 29°44' W 095°01'0 0.0
2017-Sep-12 09:00N 29°44' W 095°01'0 0.0
2017-Sep-12 08:27N 29°44' W 095°01'0 0.0
2017-Sep-12 08:00N 29°44' W 095°01'0 0.0
2017-Sep-12 07:29N 29°44' W 095°01'0 0.0
2017-Sep-12 06:58N 29°44' W 095°01'0 0.0
2017-Sep-12 06:29N 29°44' W 095°01'0 0.0
2017-Sep-12 04:45N 29°44' W 095°01'0 0.0
2017-Sep-12 04:25N 29°44' W 095°01'0 0.0
2017-Sep-12 04:00N 29°44' W 095°01'0 0.0
2017-Sep-12 03:30N 29°44' W 095°01'0 0.0
2017-Sep-12 02:41N 29°44' W 095°01'0 0.0
2017-Sep-12 02:27N 29°44' W 095°01'  

Dump ship's entire track history